»·PEaware :: N623LS 1L1-2O7

N623LS :: 1L1-2O7

FLIGHT INFORMATION

Flight Status: Arrived
Operator: Privately registered:
United States
More flights under this callsign
Pilot: Anonymous 18292 (18292)
Aircraft: MOONEY M-20 201 202 205 220 ATS MSE
(M20P)
More flights by this aircraft type
Origin: 1L1 Lincoln Co
United States
Destination: 2O7 Independence
United States
More flights between these airports :: More routes between these airports
Route:
File this flight plan on PilotEdge
Remarks:
Altitude:
(Current/Filed)
10,500ft
Speed:
(Current/Filed)
182kts
Departed: 05-Oct-18 07:51 PM
Arrived: 05-Oct-18 09:17 PM
Distance/Time
Traveled:
190nm/1:26
Distance/Time
To Go:
Arrived

Flight Plot

Page will automatically refresh every two minutes.


Map Options




Map Legend


Flown Route
Filed Route
Departure Airport
Arrival Airport
Navaid (VOR, NDB)
Fix

Horizontal Profiles

Position Reports

Time Latitude Longitude Heading Altitude Ground
Speed
05-Oct-18 19:39 37.791933 -114.418304 88 4834ft 0kts
05-Oct-18 19:40 37.791933 -114.418304 88 4834ft 0kts
05-Oct-18 19:41 37.791933 -114.418304 88 4834ft 0kts
05-Oct-18 19:42 37.791933 -114.418303 88 4834ft 0kts
05-Oct-18 19:43 37.791933 -114.418304 88 4834ft 0kts
05-Oct-18 19:44 37.791933 -114.418304 88 4834ft 0kts
05-Oct-18 19:45 37.791933 -114.418304 88 4834ft 0kts
05-Oct-18 19:46 37.791930 -114.418253 101 4834ft 1kts
05-Oct-18 19:47 37.791598 -114.418623 6 4834ft 5kts
05-Oct-18 19:48 37.792284 -114.418882 272 4835ft 0kts
05-Oct-18 19:49 37.790288 -114.419753 183 4830ft 19kts
05-Oct-18 19:50 37.782877 -114.420150 183 4807ft 29kts
05-Oct-18 19:51 37.781424 -114.420242 0 4802ft 0kts
05-Oct-18 19:52 37.781424 -114.420242 0 4802ft 0kts
05-Oct-18 19:53 37.793112 -114.420184 7 4955ft 85kts
05-Oct-18 19:54 37.817817 -114.430418 321 5686ft 108kts
05-Oct-18 19:55 37.827715 -114.461698 234 6440ft 128kts
05-Oct-18 19:56 37.815388 -114.500699 259 7375ft 120kts
05-Oct-18 19:57 37.809458 -114.542704 268 8161ft 122kts
05-Oct-18 19:58 37.807017 -114.585853 266 8962ft 124kts
05-Oct-18 19:59 37.807628 -114.629324 276 9736ft 126kts
05-Oct-18 20:00 37.811235 -114.671376 278 10479ft 127kts
05-Oct-18 20:01 37.814227 -114.721037 276 10630ft 153kts
05-Oct-18 20:02 37.820064 -114.777115 279 10640ft 167kts
05-Oct-18 20:03 37.827534 -114.837070 278 10628ft 175kts
05-Oct-18 20:04 37.834270 -114.898885 276 10637ft 179kts
05-Oct-18 20:05 37.840275 -114.961683 278 10615ft 181kts
05-Oct-18 20:06 37.845742 -115.025263 277 10607ft 180kts
05-Oct-18 20:07 37.851326 -115.088728 277 10578ft 181kts
05-Oct-18 20:08 37.858784 -115.151784 280 10566ft 181kts
05-Oct-18 20:09 37.866734 -115.214931 276 10559ft 181kts
05-Oct-18 20:10 37.871641 -115.277865 279 10563ft 181kts
05-Oct-18 20:11 37.879307 -115.341761 280 10563ft 183kts
05-Oct-18 20:12 37.888405 -115.404986 278 10611ft 183kts
05-Oct-18 20:13 37.894401 -115.468019 274 10697ft 176kts
05-Oct-18 20:14 37.898388 -115.529872 279 10674ft 176kts
05-Oct-18 20:15 37.901808 -115.592026 275 10639ft 177kts
05-Oct-18 20:16 37.905736 -115.652548 275 10617ft 177kts
05-Oct-18 20:17 37.910839 -115.714394 279 10601ft 176kts
05-Oct-18 20:18 37.918913 -115.775696 280 10584ft 176kts
05-Oct-18 20:19 37.927091 -115.837124 278 10569ft 176kts
05-Oct-18 20:20 37.927600 -115.899305 269 10592ft 175kts
05-Oct-18 20:21 37.922939 -115.960586 267 10649ft 173kts
05-Oct-18 20:22 37.920062 -116.022143 267 10619ft 176kts
05-Oct-18 20:23 37.916344 -116.084142 270 10634ft 175kts
05-Oct-18 20:24 37.916477 -116.146125 272 10628ft 175kts
05-Oct-18 20:25 37.919086 -116.208011 273 10616ft 176kts
05-Oct-18 20:26 37.920894 -116.269878 271 10620ft 176kts
05-Oct-18 20:27 37.919361 -116.331996 269 10608ft 176kts
05-Oct-18 20:28 37.919244 -116.394139 275 10597ft 176kts
05-Oct-18 20:29 37.920692 -116.456245 272 10591ft 176kts
05-Oct-18 20:30 37.921327 -116.518463 272 10577ft 176kts
05-Oct-18 20:31 37.920806 -116.580673 271 10575ft 176kts
05-Oct-18 20:32 37.919989 -116.642725 269 10571ft 176kts
05-Oct-18 20:33 37.917769 -116.703211 269 10571ft 176kts
05-Oct-18 20:34 37.916596 -116.765144 271 10592ft 175kts
05-Oct-18 20:35 37.918062 -116.826689 273 10603ft 176kts
05-Oct-18 20:36 37.921004 -116.888667 275 10603ft 176kts
05-Oct-18 20:37 37.922027 -116.950595 271 10589ft 177kts
05-Oct-18 20:38 37.920430 -117.013129 266 10567ft 177kts
05-Oct-18 20:39 37.917934 -117.075335 271 10577ft 176kts
05-Oct-18 20:40 37.915385 -117.137649 261 10548ft 178kts
05-Oct-18 20:41 37.880462 -117.180369 216 10504ft 183kts
05-Oct-18 20:42 37.837863 -117.214800 207 10533ft 182kts
05-Oct-18 20:43 37.789369 -117.234003 198 10504ft 184kts
05-Oct-18 20:44 37.743524 -117.260249 217 10573ft 178kts
05-Oct-18 20:45 37.703239 -117.297929 217 10548ft 181kts
05-Oct-18 20:46 37.663247 -117.335896 220 10547ft 181kts
05-Oct-18 20:47 37.620084 -117.368471 217 10539ft 180kts
05-Oct-18 20:48 37.580820 -117.407562 221 10547ft 180kts
05-Oct-18 20:49 37.546517 -117.453100 236 10573ft 178kts
05-Oct-18 20:50 37.517311 -117.503070 246 10573ft 178kts
05-Oct-18 20:51 37.491344 -117.556491 232 10571ft 180kts
05-Oct-18 20:52 37.451023 -117.593877 217 10570ft 181kts
05-Oct-18 20:53 37.410952 -117.631749 221 10591ft 180kts
05-Oct-18 20:54 37.374311 -117.669924 222 10552ft 184kts
05-Oct-18 20:55 37.341322 -117.703968 227 10547ft 185kts
05-Oct-18 20:56 37.308350 -117.765779 245 10575ft 183kts
05-Oct-18 20:57 37.291656 -117.825561 257 10610ft 181kts
05-Oct-18 20:58 37.278817 -117.886457 255 10335ft 181kts
05-Oct-18 20:59 37.269962 -117.937197 262 10003ft 178kts
05-Oct-18 21:00 37.260434 -118.008427 263 9618ft 177kts
05-Oct-18 21:01 37.249717 -118.058192 249 9387ft 179kts
05-Oct-18 21:02 37.229402 -118.114913 244 9146ft 178kts
05-Oct-18 21:03 37.201929 -118.166903 233 8870ft 179kts
05-Oct-18 21:04 37.155924 -118.210098 200 8476ft 181kts
05-Oct-18 21:05 37.115275 -118.222166 187 8201ft 180kts
05-Oct-18 21:06 37.066558 -118.224065 180 7437ft 168kts
05-Oct-18 21:07 37.021012 -118.224107 173 6625ft 163kts
05-Oct-18 21:08 36.977458 -118.213431 171 5927ft 154kts
05-Oct-18 21:09 36.936192 -118.198457 173 5231ft 152kts
05-Oct-18 21:10 36.897192 -118.189965 174 4796ft 134kts
05-Oct-18 21:11 36.859986 -118.180731 189 4826ft 141kts
05-Oct-18 21:12 36.825247 -118.170216 157 4472ft 128kts
05-Oct-18 21:13 36.797997 -118.160589 291 4468ft 90kts
05-Oct-18 21:14 36.804300 -118.190508 254 4318ft 103kts
05-Oct-18 21:15 36.824875 -118.207738 356 4675ft 107kts
05-Oct-18 21:16 36.814255 -118.180547 152 4740ft 118kts
05-Oct-18 21:17 36.793283 -118.179276 260 4214ft 86kts
05-Oct-18 21:18 36.805739 -118.199666 338 4070ft 74kts
05-Oct-18 21:19 36.816188 -118.204774 196 3901ft 3kts
05-Oct-18 21:20 36.811503 -118.202449 160 3895ft 24kts
05-Oct-18 21:21 36.809966 -118.202784 65 3901ft 1kts
05-Oct-18 21:22 36.810112 -118.202479 41 3899ft 0kts
05-Oct-18 21:23 36.810112 -118.202479 41 3899ft 0kts

Navigation Log

Ident Type
Flight plan parsing failed, navigation log unavailable